Oxbow, New York
Current Conditions -  °F | °C
As of 2:08 AM on Friday 31 Oct 2014 (Local Time) from KGTB Reporting Station
Broken Clouds Broken Clouds  
Wind Chill: 32°   Ceiling: 7500
Heat Index: 32°   Visibility: 9mi
Dew Point: 32°   Wind: 3mph
Humidity: 100%   Direction: 180°S
Pressure: 30.01"   Gusts: NA
Location:  44.29°N, 75.62°W
Report Text: KGTB 310608Z AUTO 18003KT 9SM BKN075 00/00 A3001 RMK AO2
Loading
Personal Weather Stations






























Interactive Weather Map
Tropical Storm Tracking
New forecast layout! Learn more

10-Day Weather Forecast

Advertisements
Track Severe Weather on mobile